Weather at Épinal-Mirecourt Airport

Public forecast

Using degrees Celsius for public forecast. Weather courtesy of forecast.io.

Current aviation weather report (METAR) for Épinal-Mirecourt Airport

Retrieved 2021/07/30 18:30 UTC (15 minutes ago):

LFSG 301830Z AUTO 26009KT 9999 FEW047 BKN072 21/14 Q1011

Closest aviation forecast (TAF) to Épinal-Mirecourt Airport

Forecast is more than 12 hours old.

Closest forecast is Nancy-Ochey (BA 133) Air Base, 16.2 nm (29.9 km) NNW. Retrieved 2021/07/16 12:03 UTC (14 days ago):

TAF TAF LFSO 161257Z 1612/1709 CNL